CDT,Max TemperatureF,Mean TemperatureF,Min TemperatureF,Max Dew PointF,MeanDew PointF,Min DewpointF,Max Humidity, Mean Humidity, Min Humidity, Max Sea Level PressureIn, Mean Sea Level PressureIn, Min Sea Level PressureIn, Max VisibilityMiles, Mean VisibilityMiles, Min VisibilityMiles, Max Wind SpeedMPH, Mean Wind SpeedMPH, Max Gust SpeedMPH,PrecipitationIn, CloudCover, Events, WindDirDegrees
2012-9-1,91,84,77,77,74,68,100,80,49,30.14,30.07,30.02,10,10,10,12,9,16,0.00,4,,193
2012-9-2,91,82,73,75,72,68,100,74,46,30.09,30.02,29.96,10,10,10,10,7,18,0.00,1,,208
2012-9-3,93,85,77,77,73,68,100,74,44,30.04,29.97,29.93,10,10,7,10,6,17,0.00,0,,212
2012-9-4,95,85,75,77,73,68,100,73,41,29.98,29.94,29.90,10,10,5,9,6,16,0.00,1,,217
2012-9-5,95,84,73,77,72,66,100,72,39,29.95,29.90,29.86,10,10,7,8,4,,0.00,0,,216
2012-9-6,95,86,77,77,72,64,100,73,36,29.97,29.92,29.88,10,10,10,8,4,,0.00,2,,208
2012-9-7,95,84,73,77,73,63,100,73,34,29.96,29.90,29.82,10,10,5,7,3,,0.00,0,,175
2012-9-8,78,69,59,77,67,55,100,83,44,30.07,29.98,29.85,10,9,2,15,5,24,0.97,4,Rain-Thunderstorm,2
2012-9-9,80,68,55,63,56,48,100,75,32,30.16,30.10,30.06,10,10,7,12,1,,0.00,0,,8
2012-9-10,84,70,55,66,57,46,100,73,28,30.19,30.13,30.10,10,10,10,7,1,,0.00,0,,54
2012-9-11,84,70,57,64,59,54,100,73,35,30.21,30.15,30.11,10,10,10,8,1,,0.00,1,,108
2012-9-12,87,74,60,68,63,61,100,75,40,30.20,30.14,30.08,10,10,7,9,2,16,0.00,2,Thunderstorm,114
2012-9-13,86,77,68,73,69,64,100,81,48,30.21,30.16,30.11,10,10,10,10,3,,0.00,4,Thunderstorm,129
2012-9-14,87,78,69,73,69,63,100,81,43,30.22,30.18,30.13,10,10,4,12,2,,0.30,4,Rain,81
2012-9-15,78,74,69,73,70,68,100,91,69,30.21,30.16,30.11,10,7,2,5,2,,0.00,7,,16
2012-9-16,84,76,69,73,69,63,100,85,48,30.12,30.05,29.99,10,8,2,8,1,,0.03,5,Rain,360
2012-9-17,73,71,69,73,71,70,100,100,100,29.99,29.88,29.79,10,6,1,7,3,16,1.36,7,Rain-Thunderstorm,3
2012-9-18,78,68,55,70,65,55,100,85,57,30.11,29.98,29.84,10,9,4,14,5,20,0.00,5,Rain,342
2012-9-19,75,63,51,59,51,41,100,75,31,30.21,30.15,30.11,10,9,5,7,1,,0.00,0,,31
2012-9-20,80,64,48,63,52,45,100,73,28,30.16,30.10,30.04,10,10,10,7,1,,0.00,0,,165
2012-9-21,83,67,51,65,56,50,100,74,31,30.10,30.05,29.99,10,10,10,7,2,,0.00,0,,192
2012-9-22,88,74,60,72,64,58,100,76,37,30.15,30.09,30.02,10,10,7,9,3,,0.00,0,,263
2012-9-23,86,74,63,69,63,55,100,74,44,30.25,30.19,30.14,10,9,4,10,1,16,0.00,0,,27
2012-9-24,86,73,60,75,61,53,100,69,50,30.24,30.17,30.08,10,10,10,7,2,,0.00,0,,144
2012-9-25,87,78,69,74,69,64,100,80,46,30.13,30.08,30.04,10,8,1,10,6,,0.00,1,,188
2012-9-26,87,76,67,72,67,60,100,78,40,30.15,30.10,30.05,10,9,1,10,5,,0.00,1,,173
2012-9-27,87,74,62,72,66,59,100,80,38,30.19,30.13,30.05,10,9,4,8,1,9,0.00,1,,146
2012-9-28,87,75,63,73,67,63,100,82,47,30.13,30.07,30.00,10,9,3,7,1,,0.00,2,,83
2012-9-29,76,70,65,73,70,66,100,97,83,30.04,29.97,29.90,10,8,3,10,2,17,0.93,6,Rain,48
2012-9-30,68,63,58,68,64,58,100,100,100,29.89,29.74,29.65,7,5,1,18,7,25,4.87,8,Rain,26